Crystal Symphony — C6MY5 — position and weather

sailwx.info

Track history (hours):
 
Tides and Currents Weather Stations Pressure Air Temp Water Temp Dewpoint Dewpoint Depression Visibility Wind Speed Wind Dir Waves Ship Positions

Crystal Symphony

Operator: Crystal Cruises

Last reported at 2016-Jul-26 11:31 UTC. Time now 2016-Jul-26 12:08 UTC.
Position N 52°09' W 006°59'.

Length 238 m; draft 8 m.

Type: Ship. MMSI: 309168000.

Date/timePositionNaut miles runAvg speedWind from/ knotsBaromVisibWave heightAir tempDewpointWater temp
2016-Jul-26 11:31N 52°09' W 006°59'0 0.0
2016-Jul-26 10:31N 52°09' W 006°59'0 0.0
2016-Jul-26 09:31N 52°09' W 006°59'0 0.0
2016-Jul-26 08:30N 52°09' W 006°59'6 6.0
2016-Jul-26 07:33N 52°03' W 006°57'1414.2
2016-Jul-26 06:33N 51°50' W 006°49'186 5.9
2016-Jul-24 23:10N 49°37' W 003°24'6 9.4
2016-Jul-24 22:33N 49°42' W 003°21'9 9.1
2016-Jul-24 21:34N 49°49' W 003°13'9 9.0
2016-Jul-24 20:33N 49°55' W 003°02'8512.2
2016-Jul-24 13:33N 50°19' W 000°55'1410.6
2016-Jul-24 12:15N 50°22' W 000°33'7 9.7
2016-Jul-24 11:33N 50°24' W 000°23'1010.0
2016-Jul-24 10:33N 50°27' W 000°08'10 9.7
2016-Jul-24 09:33N 50°29' E 000°06'1010.0
2016-Jul-24 08:33N 50°32' E 000°22'3310.7
2016-Jul-24 05:30N 50°49' E 001°06'1111.3
2016-Jul-24 04:33N 50°56' E 001°19'1110.8
2016-Jul-24 03:33N 51°04' E 001°29'10 9.6
2016-Jul-24 02:33N 51°12' E 001°38'10 9.9
2016-Jul-24 01:33N 51°22' E 001°36'9 8.9
2016-Jul-24 00:34N 51°28' E 001°25'1312.6
2016-Jul-23 23:33N 51°30' E 001°05'1110.9
2016-Jul-23 22:33N 51°29' E 000°48'1212.4
2016-Jul-23 21:33N 51°29' E 000°28'4 4.3
2016-Jul-23 20:34N 51°27' E 000°22'0 0.0
2016-Jul-23 19:33N 51°27' E 000°22'0 0.0
2016-Jul-23 18:34N 51°27' E 000°22'0 0.0
2016-Jul-23 17:34N 51°27' E 000°22'0 0.0
2016-Jul-23 16:34N 51°27' E 000°22'0 0.0
2016-Jul-23 15:34N 51°27' E 000°22'0 0.0
2016-Jul-23 14:34N 51°27' E 000°22'0 0.0
2016-Jul-23 13:34N 51°27' E 000°22'0 0.0
2016-Jul-23 12:33N 51°27' E 000°22'0 0.0
2016-Jul-23 11:33N 51°27' E 000°22'0 0.0
2016-Jul-23 10:33N 51°27' E 000°22'0 0.0
2016-Jul-23 09:33N 51°27' E 000°22'0 0.0
2016-Jul-23 08:33N 51°27' E 000°22'0 0.0
2016-Jul-23 07:33N 51°27' E 000°22'0 0.0
2016-Jul-23 06:33N 51°27' E 000°22'0 0.0
2016-Jul-23 04:34N 51°27' E 000°22'6 6.1
2016-Jul-23 03:34N 51°30' E 000°30'1313.0
2016-Jul-23 02:33N 51°29' E 000°51'1414.1
2016-Jul-23 01:34N 51°29' E 001°14'1111.3
2016-Jul-23 00:33N 51°28' E 001°32'1312.5
2016-Jul-22 23:34N 51°34' E 001°50'1918.5
2016-Jul-22 22:34N 51°47' E 002°10'2221.9
2016-Jul-22 21:34N 52°09' E 002°17'2121.1
2016-Jul-22 20:33N 52°30' E 002°24'2019.9
2016-Jul-22 19:33N 52°49' E 002°31'2020.1
2016-Jul-22 18:33N 53°09' E 002°39'2019.8
2016-Jul-22 17:33N 53°28' E 002°44'2019.7
2016-Jul-22 16:33N 53°44' E 002°25'2019.8
2016-Jul-22 15:32N 53°59' E 002°01'6018.8
2016-Jul-22 12:21N 54°41' E 000°48'  
2016-Jul-16 22:32N 62°30' W 009°37'1414.3
2016-Jul-16 21:33N 62°28' W 009°08'1414.1
2016-Jul-16 20:33N 62°27' W 008°37'1414.3
2016-Jul-16 19:34N 62°25' W 008°07'1413.6
2016-Jul-16 18:33N 62°24' W 007°38'1313.1
2016-Jul-16 17:33N 62°22' W 007°09'1414.0
2016-Jul-16 16:33N 62°15' W 006°44'4 4.0
2016-Jul-16 15:28N 62°15' W 006°35'0 0.0
2016-Jul-16 14:33N 62°15' W 006°35'0 0.0
2016-Jul-16 13:33N 62°15' W 006°35'0 0.0
2016-Jul-16 12:33N 62°15' W 006°35'0 0.0
2016-Jul-16 11:32N 62°15' W 006°35'  
Track history (hours):
 
Tides and Currents Weather Stations Pressure Air Temp Water Temp Dewpoint Dewpoint Depression Visibility Wind Speed Wind Dir Waves Ship Positions

Crystal Symphony

Operator: Crystal Cruises

Last reported at 2016-Jul-26 11:31 UTC. Time now 2016-Jul-26 12:08 UTC.
Position N 52°09' W 006°59'.

Length 238 m; draft 8 m.

Type: Ship. MMSI: 309168000.

Date/timePositionNaut miles runAvg speedWind from/ knotsBaromVisibWave heightAir tempDewpointWater temp
2016-Jul-26 11:31N 52°09' W 006°59'0 0.0
2016-Jul-26 10:31N 52°09' W 006°59'0 0.0
2016-Jul-26 09:31N 52°09' W 006°59'0 0.0
2016-Jul-26 08:30N 52°09' W 006°59'6 6.0
2016-Jul-26 07:33N 52°03' W 006°57'1414.2
2016-Jul-26 06:33N 51°50' W 006°49'186 5.9
2016-Jul-24 23:10N 49°37' W 003°24'6 9.4
2016-Jul-24 22:33N 49°42' W 003°21'9 9.1
2016-Jul-24 21:34N 49°49' W 003°13'9 9.0
2016-Jul-24 20:33N 49°55' W 003°02'8512.2
2016-Jul-24 13:33N 50°19' W 000°55'1410.6
2016-Jul-24 12:15N 50°22' W 000°33'7 9.7
2016-Jul-24 11:33N 50°24' W 000°23'1010.0
2016-Jul-24 10:33N 50°27' W 000°08'10 9.7
2016-Jul-24 09:33N 50°29' E 000°06'1010.0
2016-Jul-24 08:33N 50°32' E 000°22'3310.7
2016-Jul-24 05:30N 50°49' E 001°06'1111.3
2016-Jul-24 04:33N 50°56' E 001°19'1110.8
2016-Jul-24 03:33N 51°04' E 001°29'10 9.6
2016-Jul-24 02:33N 51°12' E 001°38'10 9.9
2016-Jul-24 01:33N 51°22' E 001°36'9 8.9
2016-Jul-24 00:34N 51°28' E 001°25'1312.6
2016-Jul-23 23:33N 51°30' E 001°05'1110.9
2016-Jul-23 22:33N 51°29' E 000°48'1212.4
2016-Jul-23 21:33N 51°29' E 000°28'4 4.3
2016-Jul-23 20:34N 51°27' E 000°22'0 0.0
2016-Jul-23 19:33N 51°27' E 000°22'0 0.0
2016-Jul-23 18:34N 51°27' E 000°22'0 0.0
2016-Jul-23 17:34N 51°27' E 000°22'0 0.0
2016-Jul-23 16:34N 51°27' E 000°22'0 0.0
2016-Jul-23 15:34N 51°27' E 000°22'0 0.0
2016-Jul-23 14:34N 51°27' E 000°22'0 0.0
2016-Jul-23 13:34N 51°27' E 000°22'0 0.0
2016-Jul-23 12:33N 51°27' E 000°22'0 0.0
2016-Jul-23 11:33N 51°27' E 000°22'0 0.0
2016-Jul-23 10:33N 51°27' E 000°22'0 0.0
2016-Jul-23 09:33N 51°27' E 000°22'0 0.0
2016-Jul-23 08:33N 51°27' E 000°22'0 0.0
2016-Jul-23 07:33N 51°27' E 000°22'0 0.0
2016-Jul-23 06:33N 51°27' E 000°22'0 0.0
2016-Jul-23 04:34N 51°27' E 000°22'6 6.1
2016-Jul-23 03:34N 51°30' E 000°30'1313.0
2016-Jul-23 02:33N 51°29' E 000°51'1414.1
2016-Jul-23 01:34N 51°29' E 001°14'1111.3
2016-Jul-23 00:33N 51°28' E 001°32'1312.5
2016-Jul-22 23:34N 51°34' E 001°50'1918.5
2016-Jul-22 22:34N 51°47' E 002°10'2221.9
2016-Jul-22 21:34N 52°09' E 002°17'2121.1
2016-Jul-22 20:33N 52°30' E 002°24'2019.9
2016-Jul-22 19:33N 52°49' E 002°31'2020.1
2016-Jul-22 18:33N 53°09' E 002°39'2019.8
2016-Jul-22 17:33N 53°28' E 002°44'2019.7
2016-Jul-22 16:33N 53°44' E 002°25'2019.8
2016-Jul-22 15:32N 53°59' E 002°01'6018.8
2016-Jul-22 12:21N 54°41' E 000°48'  
2016-Jul-16 22:32N 62°30' W 009°37'1414.3
2016-Jul-16 21:33N 62°28' W 009°08'1414.1
2016-Jul-16 20:33N 62°27' W 008°37'1414.3
2016-Jul-16 19:34N 62°25' W 008°07'1413.6
2016-Jul-16 18:33N 62°24' W 007°38'1313.1
2016-Jul-16 17:33N 62°22' W 007°09'1414.0
2016-Jul-16 16:33N 62°15' W 006°44'4 4.0
2016-Jul-16 15:28N 62°15' W 006°35'0 0.0
2016-Jul-16 14:33N 62°15' W 006°35'0 0.0
2016-Jul-16 13:33N 62°15' W 006°35'0 0.0
2016-Jul-16 12:33N 62°15' W 006°35'0 0.0
2016-Jul-16 11:32N 62°15' W 006°35'  

Dump ship's entire track history